sensor_id;sensor_type;location;lat;lon;timestamp;P1;durP1;ratioP1;P2;durP2;ratioP2
25249;SDS011;13201;51.148;13.738;2023-07-20T00:00:48;4.97;;;2.80;;
25249;SDS011;13201;51.148;13.738;2023-07-20T00:03:18;3.85;;;2.30;;
25249;SDS011;13201;51.148;13.738;2023-07-20T00:05:48;3.15;;;2.22;;
25249;SDS011;13201;51.148;13.738;2023-07-20T00:08:14;7.32;;;2.80;;
25249;SDS011;13201;51.148;13.738;2023-07-20T00:10:41;5.35;;;2.45;;
25249;SDS011;13201;51.148;13.738;2023-07-20T00:13:07;5.00;;;2.10;;
25249;SDS011;13201;51.148;13.738;2023-07-20T00:15:33;4.45;;;2.25;;
25249;SDS011;13201;51.148;13.738;2023-07-20T00:17:58;4.80;;;2.40;;
25249;SDS011;13201;51.148;13.738;2023-07-20T00:20:24;3.30;;;2.08;;
25249;SDS011;13201;51.148;13.738;2023-07-20T00:22:50;6.60;;;2.57;;
25249;SDS011;13201;51.148;13.738;2023-07-20T00:25:17;2.83;;;2.17;;
25249;SDS011;13201;51.148;13.738;2023-07-20T00:27:43;4.65;;;2.58;;
25249;SDS011;13201;51.148;13.738;2023-07-20T00:30:09;5.22;;;2.35;;
25249;SDS011;13201;51.148;13.738;2023-07-20T00:32:35;5.73;;;2.17;;
25249;SDS011;13201;51.148;13.738;2023-07-20T00:35:01;2.85;;;1.88;;
25249;SDS011;13201;51.148;13.738;2023-07-20T00:37:26;3.30;;;1.98;;
25249;SDS011;13201;51.148;13.738;2023-07-20T00:39:52;3.72;;;2.35;;
25249;SDS011;13201;51.148;13.738;2023-07-20T00:42:18;5.00;;;2.35;;
25249;SDS011;13201;51.148;13.738;2023-07-20T00:44:44;3.20;;;2.30;;
25249;SDS011;13201;51.148;13.738;2023-07-20T00:47:09;6.50;;;2.53;;
25249;SDS011;13201;51.148;13.738;2023-07-20T00:49:35;5.18;;;2.00;;
25249;SDS011;13201;51.148;13.738;2023-07-20T00:52:02;3.80;;;2.08;;
25249;SDS011;13201;51.148;13.738;2023-07-20T00:54:30;3.35;;;2.05;;
25249;SDS011;13201;51.148;13.738;2023-07-20T00:56:56;4.47;;;2.25;;
25249;SDS011;13201;51.148;13.738;2023-07-20T00:59:23;5.18;;;2.15;;
25249;SDS011;13201;51.148;13.738;2023-07-20T01:01:49;3.43;;;2.03;;
25249;SDS011;13201;51.148;13.738;2023-07-20T01:32:27;2.60;;;2.00;;
25249;SDS011;13201;51.148;13.738;2023-07-20T01:34:55;3.60;;;2.00;;
25249;SDS011;13201;51.148;13.738;2023-07-20T01:37:23;3.30;;;1.67;;
25249;SDS011;13201;51.148;13.738;2023-07-20T01:39:53;2.17;;;1.50;;
25249;SDS011;13201;51.148;13.738;2023-07-20T01:42:22;1.75;;;1.30;;
25249;SDS011;13201;51.148;13.738;2023-07-20T01:44:52;1.98;;;1.33;;
25249;SDS011;13201;51.148;13.738;2023-07-20T01:47:18;2.45;;;1.40;;
25249;SDS011;13201;51.148;13.738;2023-07-20T01:49:44;2.53;;;1.20;;
25249;SDS011;13201;51.148;13.738;2023-07-20T01:52:10;1.90;;;1.17;;
25249;SDS011;13201;51.148;13.738;2023-07-20T01:54:35;4.88;;;1.50;;
25249;SDS011;13201;51.148;13.738;2023-07-20T01:57:02;1.52;;;1.15;;
25249;SDS011;13201;51.148;13.738;2023-07-20T01:59:27;2.58;;;1.50;;
25249;SDS011;13201;51.148;13.738;2023-07-20T02:01:53;2.10;;;1.10;;
25249;SDS011;13201;51.148;13.738;2023-07-20T02:04:19;2.08;;;1.40;;
25249;SDS011;13201;51.148;13.738;2023-07-20T02:06:44;4.25;;;1.50;;
25249;SDS011;13201;51.148;13.738;2023-07-20T02:09:10;1.52;;;1.08;;
25249;SDS011;13201;51.148;13.738;2023-07-20T02:11:36;4.32;;;1.17;;
25249;SDS011;13201;51.148;13.738;2023-07-20T02:14:01;2.28;;;1.33;;
25249;SDS011;13201;51.148;13.738;2023-07-20T02:16:27;2.45;;;1.40;;
25249;SDS011;13201;51.148;13.738;2023-07-20T02:18:53;5.70;;;1.73;;
25249;SDS011;13201;51.148;13.738;2023-07-20T02:21:18;5.13;;;1.50;;
25249;SDS011;13201;51.148;13.738;2023-07-20T02:23:44;3.03;;;1.80;;
25249;SDS011;13201;51.148;13.738;2023-07-20T02:26:09;3.13;;;1.67;;
25249;SDS011;13201;51.148;13.738;2023-07-20T02:28:35;5.50;;;1.80;;
25249;SDS011;13201;51.148;13.738;2023-07-20T02:31:01;4.65;;;1.70;;
25249;SDS011;13201;51.148;13.738;2023-07-20T02:33:26;3.55;;;2.20;;
25249;SDS011;13201;51.148;13.738;2023-07-20T02:35:52;3.63;;;2.08;;
25249;SDS011;13201;51.148;13.738;2023-07-20T02:38:18;3.67;;;2.22;;
25249;SDS011;13201;51.148;13.738;2023-07-20T02:40:43;9.88;;;2.80;;
25249;SDS011;13201;51.148;13.738;2023-07-20T02:43:09;5.15;;;2.28;;
25249;SDS011;13201;51.148;13.738;2023-07-20T02:45:35;6.03;;;2.33;;
25249;SDS011;13201;51.148;13.738;2023-07-20T02:48:00;4.70;;;2.35;;
25249;SDS011;13201;51.148;13.738;2023-07-20T02:50:28;7.38;;;2.80;;
25249;SDS011;13201;51.148;13.738;2023-07-20T02:52:53;7.00;;;2.22;;
25249;SDS011;13201;51.148;13.738;2023-07-20T02:55:19;4.28;;;2.50;;
25249;SDS011;13201;51.148;13.738;2023-07-20T02:57:45;5.13;;;2.67;;
25249;SDS011;13201;51.148;13.738;2023-07-20T03:00:11;4.10;;;2.20;;
25249;SDS011;13201;51.148;13.738;2023-07-20T03:02:40;4.55;;;2.80;;
25249;SDS011;13201;51.148;13.738;2023-07-20T03:05:06;4.63;;;2.50;;
25249;SDS011;13201;51.148;13.738;2023-07-20T03:07:32;7.32;;;2.60;;
25249;SDS011;13201;51.148;13.738;2023-07-20T03:09:57;6.53;;;2.78;;
25249;SDS011;13201;51.148;13.738;2023-07-20T03:12:23;4.30;;;2.70;;
25249;SDS011;13201;51.148;13.738;2023-07-20T03:14:49;6.72;;;2.67;;
25249;SDS011;13201;51.148;13.738;2023-07-20T03:17:15;8.00;;;3.15;;
25249;SDS011;13201;51.148;13.738;2023-07-20T03:19:41;6.38;;;2.83;;
25249;SDS011;13201;51.148;13.738;2023-07-20T03:22:07;8.70;;;2.95;;
25249;SDS011;13201;51.148;13.738;2023-07-20T03:24:33;6.00;;;3.25;;
25249;SDS011;13201;51.148;13.738;2023-07-20T03:26:58;8.82;;;3.17;;
25249;SDS011;13201;51.148;13.738;2023-07-20T03:29:24;5.85;;;3.15;;
25249;SDS011;13201;51.148;13.738;2023-07-20T03:31:50;9.82;;;3.97;;
25249;SDS011;13201;51.148;13.738;2023-07-20T03:34:16;5.47;;;3.63;;
25249;SDS011;13201;51.148;13.738;2023-07-20T03:36:41;10.15;;;3.45;;
25249;SDS011;13201;51.148;13.738;2023-07-20T03:39:07;7.40;;;3.30;;
25249;SDS011;13201;51.148;13.738;2023-07-20T03:41:33;4.50;;;2.97;;
25249;SDS011;13201;51.148;13.738;2023-07-20T03:43:58;8.52;;;3.45;;
25249;SDS011;13201;51.148;13.738;2023-07-20T03:46:24;5.25;;;3.28;;
25249;SDS011;13201;51.148;13.738;2023-07-20T03:48:50;5.70;;;3.63;;
25249;SDS011;13201;51.148;13.738;2023-07-20T03:51:15;6.10;;;3.50;;
25249;SDS011;13201;51.148;13.738;2023-07-20T03:53:41;6.60;;;3.47;;
25249;SDS011;13201;51.148;13.738;2023-07-20T03:56:07;7.77;;;3.87;;
25249;SDS011;13201;51.148;13.738;2023-07-20T03:58:33;10.48;;;3.97;;
25249;SDS011;13201;51.148;13.738;2023-07-20T04:00:58;6.03;;;3.53;;
25249;SDS011;13201;51.148;13.738;2023-07-20T04:03:25;10.48;;;3.70;;
25249;SDS011;13201;51.148;13.738;2023-07-20T04:05:53;7.93;;;3.93;;
25249;SDS011;13201;51.148;13.738;2023-07-20T04:08:20;11.30;;;3.97;;
25249;SDS011;13201;51.148;13.738;2023-07-20T04:10:47;7.55;;;3.42;;
25249;SDS011;13201;51.148;13.738;2023-07-20T04:13:13;8.57;;;4.00;;
25249;SDS011;13201;51.148;13.738;2023-07-20T04:15:38;6.50;;;3.80;;
25249;SDS011;13201;51.148;13.738;2023-07-20T04:18:04;11.00;;;4.07;;
25249;SDS011;13201;51.148;13.738;2023-07-20T04:20:30;9.73;;;4.35;;
25249;SDS011;13201;51.148;13.738;2023-07-20T04:22:55;9.00;;;4.00;;
25249;SDS011;13201;51.148;13.738;2023-07-20T04:25:21;6.30;;;3.88;;
25249;SDS011;13201;51.148;13.738;2023-07-20T04:27:47;9.98;;;3.90;;
25249;SDS011;13201;51.148;13.738;2023-07-20T04:30:13;6.85;;;3.85;;
25249;SDS011;13201;51.148;13.738;2023-07-20T04:32:40;8.63;;;3.83;;
25249;SDS011;13201;51.148;13.738;2023-07-20T04:35:09;5.45;;;3.70;;
25249;SDS011;13201;51.148;13.738;2023-07-20T04:37:35;9.82;;;3.72;;
25249;SDS011;13201;51.148;13.738;2023-07-20T04:40:00;7.38;;;3.72;;
25249;SDS011;13201;51.148;13.738;2023-07-20T04:42:26;7.80;;;3.78;;
25249;SDS011;13201;51.148;13.738;2023-07-20T04:44:52;9.90;;;3.70;;
25249;SDS011;13201;51.148;13.738;2023-07-20T04:47:18;11.55;;;4.10;;
25249;SDS011;13201;51.148;13.738;2023-07-20T04:49:43;8.05;;;3.72;;
25249;SDS011;13201;51.148;13.738;2023-07-20T04:52:09;7.65;;;3.85;;
25249;SDS011;13201;51.148;13.738;2023-07-20T04:54:35;10.25;;;3.90;;
25249;SDS011;13201;51.148;13.738;2023-07-20T04:57:00;6.45;;;3.75;;
25249;SDS011;13201;51.148;13.738;2023-07-20T04:59:26;11.00;;;4.10;;
25249;SDS011;13201;51.148;13.738;2023-07-20T05:01:51;7.78;;;4.18;;
25249;SDS011;13201;51.148;13.738;2023-07-20T05:04:17;6.88;;;3.95;;
25249;SDS011;13201;51.148;13.738;2023-07-20T05:06:43;8.75;;;3.80;;
25249;SDS011;13201;51.148;13.738;2023-07-20T05:09:09;7.23;;;4.13;;
25249;SDS011;13201;51.148;13.738;2023-07-20T05:11:35;9.02;;;4.25;;
25249;SDS011;13201;51.148;13.738;2023-07-20T05:14:00;7.50;;;4.13;;
25249;SDS011;13201;51.148;13.738;2023-07-20T05:16:26;11.75;;;3.78;;
25249;SDS011;13201;51.148;13.738;2023-07-20T05:18:52;7.53;;;4.45;;
25249;SDS011;13201;51.148;13.738;2023-07-20T05:21:17;6.80;;;4.18;;
25249;SDS011;13201;51.148;13.738;2023-07-20T05:23:43;7.85;;;4.45;;
25249;SDS011;13201;51.148;13.738;2023-07-20T05:26:09;11.25;;;3.95;;
25249;SDS011;13201;51.148;13.738;2023-07-20T05:28:35;13.10;;;3.95;;
25249;SDS011;13201;51.148;13.738;2023-07-20T05:31:02;7.55;;;3.80;;
25249;SDS011;13201;51.148;13.738;2023-07-20T05:33:28;9.25;;;4.20;;
25249;SDS011;13201;51.148;13.738;2023-07-20T05:35:54;6.43;;;4.30;;
25249;SDS011;13201;51.148;13.738;2023-07-20T05:38:19;7.32;;;4.22;;
25249;SDS011;13201;51.148;13.738;2023-07-20T05:40:45;7.82;;;4.28;;
25249;SDS011;13201;51.148;13.738;2023-07-20T05:43:12;6.38;;;4.30;;
25249;SDS011;13201;51.148;13.738;2023-07-20T05:45:41;9.88;;;4.35;;
25249;SDS011;13201;51.148;13.738;2023-07-20T05:48:08;8.27;;;4.40;;
25249;SDS011;13201;51.148;13.738;2023-07-20T05:50:36;7.53;;;4.00;;
25249;SDS011;13201;51.148;13.738;2023-07-20T05:53:07;9.48;;;4.55;;
25249;SDS011;13201;51.148;13.738;2023-07-20T05:55:32;7.03;;;4.10;;
25249;SDS011;13201;51.148;13.738;2023-07-20T05:57:58;8.73;;;5.10;;
25249;SDS011;13201;51.148;13.738;2023-07-20T06:00:23;7.30;;;4.68;;
25249;SDS011;13201;51.148;13.738;2023-07-20T06:02:52;9.52;;;4.60;;
25249;SDS011;13201;51.148;13.738;2023-07-20T06:05:18;7.82;;;4.40;;
25249;SDS011;13201;51.148;13.738;2023-07-20T06:07:45;11.02;;;4.45;;
25249;SDS011;13201;51.148;13.738;2023-07-20T06:10:10;5.70;;;2.80;;
25249;SDS011;13201;51.148;13.738;2023-07-20T06:12:36;6.88;;;3.13;;
25249;SDS011;13201;51.148;13.738;2023-07-20T06:15:02;6.75;;;2.80;;
25249;SDS011;13201;51.148;13.738;2023-07-20T06:17:29;4.95;;;2.63;;
25249;SDS011;13201;51.148;13.738;2023-07-20T06:19:55;5.45;;;2.90;;
25249;SDS011;13201;51.148;13.738;2023-07-20T06:22:21;3.58;;;2.40;;
25249;SDS011;13201;51.148;13.738;2023-07-20T06:24:47;4.63;;;2.60;;
25249;SDS011;13201;51.148;13.738;2023-07-20T06:27:12;3.25;;;2.25;;
25249;SDS011;13201;51.148;13.738;2023-07-20T06:29:38;4.50;;;2.13;;
25249;SDS011;13201;51.148;13.738;2023-07-20T06:32:04;5.07;;;2.17;;
25249;SDS011;13201;51.148;13.738;2023-07-20T06:34:30;5.68;;;2.55;;
25249;SDS011;13201;51.148;13.738;2023-07-20T06:36:56;6.25;;;2.40;;
25249;SDS011;13201;51.148;13.738;2023-07-20T06:39:22;5.93;;;2.63;;
25249;SDS011;13201;51.148;13.738;2023-07-20T06:41:47;4.80;;;2.38;;
25249;SDS011;13201;51.148;13.738;2023-07-20T06:44:13;7.15;;;2.85;;
25249;SDS011;13201;51.148;13.738;2023-07-20T06:46:39;4.97;;;2.50;;
25249;SDS011;13201;51.148;13.738;2023-07-20T06:49:07;6.10;;;2.67;;
25249;SDS011;13201;51.148;13.738;2023-07-20T06:51:33;3.97;;;2.47;;
25249;SDS011;13201;51.148;13.738;2023-07-20T06:53:59;7.15;;;3.00;;
25249;SDS011;13201;51.148;13.738;2023-07-20T06:56:24;3.92;;;2.65;;
25249;SDS011;13201;51.148;13.738;2023-07-20T06:58:50;5.63;;;2.90;;
25249;SDS011;13201;51.148;13.738;2023-07-20T07:01:16;4.78;;;3.05;;
25249;SDS011;13201;51.148;13.738;2023-07-20T07:03:42;8.88;;;3.00;;
25249;SDS011;13201;51.148;13.738;2023-07-20T07:06:08;5.65;;;3.03;;
25249;SDS011;13201;51.148;13.738;2023-07-20T07:08:35;3.90;;;2.95;;
25249;SDS011;13201;51.148;13.738;2023-07-20T07:11:01;5.57;;;3.05;;
25249;SDS011;13201;51.148;13.738;2023-07-20T07:13:26;7.88;;;3.17;;
25249;SDS011;13201;51.148;13.738;2023-07-20T07:15:52;7.22;;;2.90;;
25249;SDS011;13201;51.148;13.738;2023-07-20T07:18:18;4.53;;;3.08;;
25249;SDS011;13201;51.148;13.738;2023-07-20T07:20:50;3.63;;;2.53;;
25249;SDS011;13201;51.148;13.738;2023-07-20T07:23:17;5.32;;;2.90;;
25249;SDS011;13201;51.148;13.738;2023-07-20T07:25:43;4.32;;;2.70;;
25249;SDS011;13201;51.148;13.738;2023-07-20T07:28:08;4.93;;;2.70;;
25249;SDS011;13201;51.148;13.738;2023-07-20T07:30:34;3.85;;;2.33;;
25249;SDS011;13201;51.148;13.738;2023-07-20T07:33:00;6.80;;;2.85;;
25249;SDS011;13201;51.148;13.738;2023-07-20T07:35:25;4.13;;;2.80;;
25249;SDS011;13201;51.148;13.738;2023-07-20T07:37:51;4.55;;;3.10;;
25249;SDS011;13201;51.148;13.738;2023-07-20T07:40:17;4.63;;;2.83;;
25249;SDS011;13201;51.148;13.738;2023-07-20T07:42:43;5.33;;;2.83;;
25249;SDS011;13201;51.148;13.738;2023-07-20T07:45:09;5.47;;;2.93;;
25249;SDS011;13201;51.148;13.738;2023-07-20T07:47:35;4.65;;;3.42;;
25249;SDS011;13201;51.148;13.738;2023-07-20T07:50:00;5.72;;;3.70;;
25249;SDS011;13201;51.148;13.738;2023-07-20T07:52:26;7.20;;;4.30;;
25249;SDS011;13201;51.148;13.738;2023-07-20T07:54:52;7.45;;;4.10;;
25249;SDS011;13201;51.148;13.738;2023-07-20T07:57:18;5.57;;;4.18;;
25249;SDS011;13201;51.148;13.738;2023-07-20T07:59:43;7.20;;;4.45;;
25249;SDS011;13201;51.148;13.738;2023-07-20T08:02:09;9.35;;;4.47;;
25249;SDS011;13201;51.148;13.738;2023-07-20T08:04:35;8.48;;;4.60;;
25249;SDS011;13201;51.148;13.738;2023-07-20T08:07:02;5.22;;;4.20;;
25249;SDS011;13201;51.148;13.738;2023-07-20T08:09:28;6.40;;;4.05;;
25249;SDS011;13201;51.148;13.738;2023-07-20T08:11:54;7.18;;;4.47;;
25249;SDS011;13201;51.148;13.738;2023-07-20T08:14:20;11.00;;;5.00;;
25249;SDS011;13201;51.148;13.738;2023-07-20T08:16:45;8.40;;;5.25;;
25249;SDS011;13201;51.148;13.738;2023-07-20T08:19:12;7.57;;;5.68;;
25249;SDS011;13201;51.148;13.738;2023-07-20T08:21:38;7.82;;;5.22;;
25249;SDS011;13201;51.148;13.738;2023-07-20T08:24:03;10.60;;;6.03;;
25249;SDS011;13201;51.148;13.738;2023-07-20T08:26:29;8.43;;;5.57;;
25249;SDS011;13201;51.148;13.738;2023-07-20T08:28:55;9.13;;;6.05;;
25249;SDS011;13201;51.148;13.738;2023-07-20T08:31:21;11.63;;;6.30;;
25249;SDS011;13201;51.148;13.738;2023-07-20T08:33:47;10.30;;;6.03;;
25249;SDS011;13201;51.148;13.738;2023-07-20T08:36:13;8.48;;;6.47;;
25249;SDS011;13201;51.148;13.738;2023-07-20T08:38:39;11.25;;;6.22;;
25249;SDS011;13201;51.148;13.738;2023-07-20T08:41:05;8.07;;;6.43;;
25249;SDS011;13201;51.148;13.738;2023-07-20T08:43:30;6.97;;;5.97;;
25249;SDS011;13201;51.148;13.738;2023-07-20T08:45:58;7.43;;;5.90;;
25249;SDS011;13201;51.148;13.738;2023-07-20T08:48:24;10.20;;;6.10;;
25249;SDS011;13201;51.148;13.738;2023-07-20T08:50:52;7.97;;;5.70;;
25249;SDS011;13201;51.148;13.738;2023-07-20T08:53:22;5.35;;;4.72;;
25249;SDS011;13201;51.148;13.738;2023-07-20T08:55:48;8.45;;;5.57;;
25249;SDS011;13201;51.148;13.738;2023-07-20T08:58:20;7.22;;;5.05;;
25249;SDS011;13201;51.148;13.738;2023-07-20T09:00:46;7.13;;;5.00;;
25249;SDS011;13201;51.148;13.738;2023-07-20T09:03:15;4.93;;;4.28;;
25249;SDS011;13201;51.148;13.738;2023-07-20T09:05:41;5.85;;;4.72;;
25249;SDS011;13201;51.148;13.738;2023-07-20T09:08:07;6.68;;;4.75;;
25249;SDS011;13201;51.148;13.738;2023-07-20T09:10:32;7.63;;;4.72;;
25249;SDS011;13201;51.148;13.738;2023-07-20T09:12:58;8.15;;;4.57;;
25249;SDS011;13201;51.148;13.738;2023-07-20T09:15:24;7.70;;;4.45;;
25249;SDS011;13201;51.148;13.738;2023-07-20T09:17:51;4.63;;;4.18;;
25249;SDS011;13201;51.148;13.738;2023-07-20T09:20:19;5.00;;;3.63;;
25249;SDS011;13201;51.148;13.738;2023-07-20T09:22:45;9.93;;;3.97;;
25249;SDS011;13201;51.148;13.738;2023-07-20T09:25:12;6.13;;;3.60;;
25249;SDS011;13201;51.148;13.738;2023-07-20T09:27:39;5.18;;;3.85;;
25249;SDS011;13201;51.148;13.738;2023-07-20T09:30:06;4.38;;;3.90;;
25249;SDS011;13201;51.148;13.738;2023-07-20T09:32:40;5.20;;;3.70;;
25249;SDS011;13201;51.148;13.738;2023-07-20T09:37:46;3.47;;;2.88;;
25249;SDS011;13201;51.148;13.738;2023-07-20T09:40:16;3.17;;;2.70;;
25249;SDS011;13201;51.148;13.738;2023-07-20T09:42:42;4.82;;;2.65;;
25249;SDS011;13201;51.148;13.738;2023-07-20T09:45:08;6.03;;;3.80;;
25249;SDS011;13201;51.148;13.738;2023-07-20T09:47:38;5.43;;;2.80;;
25249;SDS011;13201;51.148;13.738;2023-07-20T09:50:04;3.22;;;2.67;;
25249;SDS011;13201;51.148;13.738;2023-07-20T09:52:35;4.80;;;2.83;;
25249;SDS011;13201;51.148;13.738;2023-07-20T09:55:06;4.85;;;3.08;;
25249;SDS011;13201;51.148;13.738;2023-07-20T09:57:33;5.78;;;3.08;;
25249;SDS011;13201;51.148;13.738;2023-07-20T09:59:59;5.20;;;3.72;;
25249;SDS011;13201;51.148;13.738;2023-07-20T10:02:29;3.42;;;3.13;;
25249;SDS011;13201;51.148;13.738;2023-07-20T10:04:58;3.92;;;3.50;;
25249;SDS011;13201;51.148;13.738;2023-07-20T10:07:29;4.45;;;3.28;;
25249;SDS011;13201;51.148;13.738;2023-07-20T10:09:55;5.03;;;3.72;;
25249;SDS011;13201;51.148;13.738;2023-07-20T10:12:24;4.85;;;3.40;;
25249;SDS011;13201;51.148;13.738;2023-07-20T10:17:30;4.57;;;4.18;;
25249;SDS011;13201;51.148;13.738;2023-07-20T10:19:56;6.18;;;4.82;;
25249;SDS011;13201;51.148;13.738;2023-07-20T10:22:26;6.10;;;4.68;;
25249;SDS011;13201;51.148;13.738;2023-07-20T10:24:52;6.80;;;4.55;;
25249;SDS011;13201;51.148;13.738;2023-07-20T10:27:23;9.32;;;4.90;;
25249;SDS011;13201;51.148;13.738;2023-07-20T10:29:50;5.30;;;4.50;;
25249;SDS011;13201;51.148;13.738;2023-07-20T10:32:18;3.92;;;3.60;;
25249;SDS011;13201;51.148;13.738;2023-07-20T10:40:38;3.13;;;2.45;;
25249;SDS011;13201;51.148;13.738;2023-07-20T10:43:05;2.80;;;2.47;;
25249;SDS011;13201;51.148;13.738;2023-07-20T10:45:41;6.20;;;2.50;;
25249;SDS011;13201;51.148;13.738;2023-07-20T10:48:33;4.57;;;2.40;;
25249;SDS011;13201;51.148;13.738;2023-07-20T10:53:40;2.80;;;2.05;;
25249;SDS011;13201;51.148;13.738;2023-07-20T10:56:13;2.88;;;2.10;;
25249;SDS011;13201;51.148;13.738;2023-07-20T10:58:48;3.10;;;2.10;;
25249;SDS011;13201;51.148;13.738;2023-07-20T11:01:16;2.47;;;1.83;;
25249;SDS011;13201;51.148;13.738;2023-07-20T11:03:42;2.33;;;2.08;;
25249;SDS011;13201;51.148;13.738;2023-07-20T11:11:30;2.70;;;1.90;;
25249;SDS011;13201;51.148;13.738;2023-07-20T11:14:06;3.13;;;1.98;;
25249;SDS011;13201;51.148;13.738;2023-07-20T11:16:43;2.45;;;2.00;;
25249;SDS011;13201;51.148;13.738;2023-07-20T11:19:17;3.00;;;2.35;;
25249;SDS011;13201;51.148;13.738;2023-07-20T11:21:49;4.13;;;2.45;;
25249;SDS011;13201;51.148;13.738;2023-07-20T11:24:16;2.20;;;2.00;;
25249;SDS011;13201;51.148;13.738;2023-07-20T11:26:43;2.35;;;2.15;;
25249;SDS011;13201;51.148;13.738;2023-07-20T11:31:38;2.97;;;2.40;;
25249;SDS011;13201;51.148;13.738;2023-07-20T11:34:05;2.85;;;2.40;;
25249;SDS011;13201;51.148;13.738;2023-07-20T11:36:33;3.38;;;2.22;;
25249;SDS011;13201;51.148;13.738;2023-07-20T11:38:59;2.45;;;2.25;;
25249;SDS011;13201;51.148;13.738;2023-07-20T11:41:25;3.00;;;2.70;;
25249;SDS011;13201;51.148;13.738;2023-07-20T11:43:52;3.40;;;2.50;;
25249;SDS011;13201;51.148;13.738;2023-07-20T11:48:44;3.57;;;2.20;;
25249;SDS011;13201;51.148;13.738;2023-07-20T11:51:14;2.53;;;2.22;;
25249;SDS011;13201;51.148;13.738;2023-07-20T11:53:43;3.47;;;2.60;;
25249;SDS011;13201;51.148;13.738;2023-07-20T11:56:11;2.90;;;2.60;;
25249;SDS011;13201;51.148;13.738;2023-07-20T11:58:41;3.13;;;2.83;;
25249;SDS011;13201;51.148;13.738;2023-07-20T12:01:09;4.00;;;3.15;;
25249;SDS011;13201;51.148;13.738;2023-07-20T12:03:36;4.07;;;3.00;;
25249;SDS011;13201;51.148;13.738;2023-07-20T12:06:08;3.80;;;3.03;;
25249;SDS011;13201;51.148;13.738;2023-07-20T12:08:35;3.83;;;3.05;;
25249;SDS011;13201;51.148;13.738;2023-07-20T12:11:04;3.97;;;2.92;;
25249;SDS011;13201;51.148;13.738;2023-07-20T12:13:37;6.20;;;3.08;;
25249;SDS011;13201;51.148;13.738;2023-07-20T12:16:15;3.50;;;2.92;;
25249;SDS011;13201;51.148;13.738;2023-07-20T12:18:42;3.70;;;3.30;;
25249;SDS011;13201;51.148;13.738;2023-07-20T12:21:09;8.27;;;3.33;;
25249;SDS011;13201;51.148;13.738;2023-07-20T12:23:36;5.50;;;2.33;;
25249;SDS011;13201;51.148;13.738;2023-07-20T12:26:03;3.28;;;2.38;;
25249;SDS011;13201;51.148;13.738;2023-07-20T12:28:40;4.40;;;2.55;;
25249;SDS011;13201;51.148;13.738;2023-07-20T12:31:07;3.70;;;2.85;;
25249;SDS011;13201;51.148;13.738;2023-07-20T12:33:34;2.50;;;2.30;;
25249;SDS011;13201;51.148;13.738;2023-07-20T12:36:00;3.15;;;2.85;;
25249;SDS011;13201;51.148;13.738;2023-07-20T12:38:26;4.10;;;2.90;;
25249;SDS011;13201;51.148;13.738;2023-07-20T12:40:53;3.35;;;2.80;;
25249;SDS011;13201;51.148;13.738;2023-07-20T12:43:22;3.17;;;2.85;;
25249;SDS011;13201;51.148;13.738;2023-07-20T12:45:48;2.30;;;2.10;;
25249;SDS011;13201;51.148;13.738;2023-07-20T12:48:13;2.28;;;2.08;;
25249;SDS011;13201;51.148;13.738;2023-07-20T12:50:39;3.42;;;2.22;;
25249;SDS011;13201;51.148;13.738;2023-07-20T12:53:05;3.28;;;1.80;;
25249;SDS011;13201;51.148;13.738;2023-07-20T12:55:31;4.10;;;2.50;;
25249;SDS011;13201;51.148;13.738;2023-07-20T12:57:56;3.70;;;2.70;;
25249;SDS011;13201;51.148;13.738;2023-07-20T13:00:22;3.75;;;2.38;;
25249;SDS011;13201;51.148;13.738;2023-07-20T13:02:48;3.50;;;2.22;;
25249;SDS011;13201;51.148;13.738;2023-07-20T13:05:14;3.25;;;1.65;;
25249;SDS011;13201;51.148;13.738;2023-07-20T13:07:40;2.17;;;1.70;;
25249;SDS011;13201;51.148;13.738;2023-07-20T13:10:06;1.95;;;1.42;;
25249;SDS011;13201;51.148;13.738;2023-07-20T13:12:33;1.85;;;1.55;;
25249;SDS011;13201;51.148;13.738;2023-07-20T13:15:03;2.22;;;1.50;;
25249;SDS011;13201;51.148;13.738;2023-07-20T13:17:31;1.88;;;1.58;;
25249;SDS011;13201;51.148;13.738;2023-07-20T13:19:58;2.05;;;1.58;;
25249;SDS011;13201;51.148;13.738;2023-07-20T13:22:23;1.80;;;1.60;;
25249;SDS011;13201;51.148;13.738;2023-07-20T13:24:49;2.38;;;1.58;;
25249;SDS011;13201;51.148;13.738;2023-07-20T13:27:16;2.88;;;1.65;;
25249;SDS011;13201;51.148;13.738;2023-07-20T13:29:42;1.40;;;1.30;;
25249;SDS011;13201;51.148;13.738;2023-07-20T13:32:07;1.92;;;1.45;;
25249;SDS011;13201;51.148;13.738;2023-07-20T13:34:34;2.55;;;1.60;;
25249;SDS011;13201;51.148;13.738;2023-07-20T13:37:00;1.93;;;1.60;;
25249;SDS011;13201;51.148;13.738;2023-07-20T13:39:27;2.42;;;1.38;;
25249;SDS011;13201;51.148;13.738;2023-07-20T13:41:53;3.50;;;1.75;;
25249;SDS011;13201;51.148;13.738;2023-07-20T13:44:20;2.33;;;1.50;;
25249;SDS011;13201;51.148;13.738;2023-07-20T13:46:46;1.75;;;1.42;;
25249;SDS011;13201;51.148;13.738;2023-07-20T13:49:12;5.88;;;1.60;;
25249;SDS011;13201;51.148;13.738;2023-07-20T13:51:39;2.00;;;1.30;;
25249;SDS011;13201;51.148;13.738;2023-07-20T13:54:05;3.00;;;1.42;;
25249;SDS011;13201;51.148;13.738;2023-07-20T13:56:31;1.67;;;1.58;;
25249;SDS011;13201;51.148;13.738;2023-07-20T13:58:57;1.58;;;1.42;;
25249;SDS011;13201;51.148;13.738;2023-07-20T14:01:22;1.42;;;1.20;;
25249;SDS011;13201;51.148;13.738;2023-07-20T14:06:18;1.75;;;1.33;;
25249;SDS011;13201;51.148;13.738;2023-07-20T14:08:43;2.08;;;1.38;;
25249;SDS011;13201;51.148;13.738;2023-07-20T14:11:13;3.92;;;1.55;;
25249;SDS011;13201;51.148;13.738;2023-07-20T14:13:39;2.00;;;1.30;;
25249;SDS011;13201;51.148;13.738;2023-07-20T14:16:05;1.40;;;1.20;;
25249;SDS011;13201;51.148;13.738;2023-07-20T14:18:32;4.15;;;1.35;;
25249;SDS011;13201;51.148;13.738;2023-07-20T14:20:58;5.30;;;1.60;;
25249;SDS011;13201;51.148;13.738;2023-07-20T14:23:24;1.50;;;1.20;;
25249;SDS011;13201;51.148;13.738;2023-07-20T14:25:49;1.50;;;1.40;;
25249;SDS011;13201;51.148;13.738;2023-07-20T14:28:15;1.70;;;1.58;;
25249;SDS011;13201;51.148;13.738;2023-07-20T14:30:41;1.73;;;1.63;;
25249;SDS011;13201;51.148;13.738;2023-07-20T14:33:07;3.40;;;1.77;;
25249;SDS011;13201;51.148;13.738;2023-07-20T14:35:33;1.90;;;1.70;;
25249;SDS011;13201;51.148;13.738;2023-07-20T14:37:59;1.70;;;1.60;;
25249;SDS011;13201;51.148;13.738;2023-07-20T14:40:25;3.25;;;1.88;;
25249;SDS011;13201;51.148;13.738;2023-07-20T14:42:51;2.03;;;1.67;;
25249;SDS011;13201;51.148;13.738;2023-07-20T14:45:17;3.28;;;1.95;;
25249;SDS011;13201;51.148;13.738;2023-07-20T14:47:43;2.80;;;2.20;;
25249;SDS011;13201;51.148;13.738;2023-07-20T14:50:10;3.20;;;2.20;;
25249;SDS011;13201;51.148;13.738;2023-07-20T14:52:36;2.63;;;2.13;;
25249;SDS011;13201;51.148;13.738;2023-07-20T14:55:02;2.13;;;1.90;;
25249;SDS011;13201;51.148;13.738;2023-07-20T14:57:28;2.55;;;2.10;;
25249;SDS011;13201;51.148;13.738;2023-07-20T14:59:53;2.20;;;1.80;;
25249;SDS011;13201;51.148;13.738;2023-07-20T15:02:20;3.35;;;2.00;;
25249;SDS011;13201;51.148;13.738;2023-07-20T15:04:46;1.90;;;1.80;;
25249;SDS011;13201;51.148;13.738;2023-07-20T15:07:19;2.00;;;1.80;;
25249;SDS011;13201;51.148;13.738;2023-07-20T15:09:47;2.90;;;2.03;;
25249;SDS011;13201;51.148;13.738;2023-07-20T15:12:13;2.63;;;2.15;;
25249;SDS011;13201;51.148;13.738;2023-07-20T15:14:42;3.50;;;2.03;;
25249;SDS011;13201;51.148;13.738;2023-07-20T15:17:08;2.42;;;1.88;;
25249;SDS011;13201;51.148;13.738;2023-07-20T15:19:34;3.50;;;2.03;;
25249;SDS011;13201;51.148;13.738;2023-07-20T15:22:01;2.10;;;1.67;;
25249;SDS011;13201;51.148;13.738;2023-07-20T15:26:54;2.03;;;1.83;;